createdAt,value
2022-09-30T00:00:27.969Z,4.60
2022-09-30T00:02:02.603Z,4.90
2022-09-30T00:03:36.924Z,8.07
2022-09-30T00:05:10.462Z,6.35
2022-09-30T00:06:44.129Z,5.60
2022-09-30T00:08:17.281Z,3.83
2022-09-30T00:09:50.432Z,6.70
2022-09-30T00:11:25.465Z,7.47
2022-09-30T00:12:59.012Z,6.60
2022-09-30T00:14:32.266Z,8.50
2022-09-30T00:16:05.069Z,4.15
2022-09-30T00:17:39.956Z,5.30
2022-09-30T00:19:14.535Z,6.93
2022-09-30T00:20:46.735Z,7.20
2022-09-30T00:22:19.891Z,4.00
2022-09-30T00:23:52.364Z,9.20
2022-09-30T00:25:25.586Z,5.63
2022-09-30T00:26:58.825Z,6.07
2022-09-30T00:28:32.626Z,7.80
2022-09-30T00:30:06.555Z,3.47
2022-09-30T00:31:40.250Z,5.60
2022-09-30T00:33:13.925Z,6.20
2022-09-30T00:34:47.089Z,6.43
2022-09-30T00:36:20.290Z,7.18
2022-09-30T00:37:55.255Z,4.85
2022-09-30T00:39:30.218Z,6.30
2022-09-30T00:41:04.671Z,4.47
2022-09-30T00:42:41.722Z,6.18
2022-09-30T00:44:44.814Z,3.05
2022-09-30T00:46:22.561Z,6.32
2022-09-30T00:47:57.755Z,5.65
2022-09-30T00:49:31.383Z,5.45
2022-09-30T00:51:07.973Z,7.13
2022-09-30T00:52:40.822Z,9.60
2022-09-30T00:54:19.308Z,4.35
2022-09-30T00:55:58.879Z,7.57
2022-09-30T00:57:32.266Z,5.05
2022-09-30T00:59:10.040Z,3.20
2022-09-30T01:00:42.988Z,4.30
2022-09-30T01:02:16.664Z,3.55
2022-09-30T01:03:55.175Z,5.10
2022-09-30T01:05:32.539Z,5.90
2022-09-30T01:07:08.486Z,3.40
2022-09-30T01:08:42.043Z,5.97
2022-09-30T01:10:15.320Z,4.75
2022-09-30T01:11:49.500Z,11.20
2022-09-30T01:13:27.433Z,2.78
2022-09-30T01:15:02.152Z,5.82
2022-09-30T01:16:51.157Z,5.35
2022-09-30T01:18:32.288Z,5.28
2022-09-30T01:20:35.895Z,10.82
2022-09-30T01:22:29.708Z,6.68
2022-09-30T01:24:55.354Z,7.85
2022-09-30T01:26:48.388Z,5.78
2022-09-30T01:28:53.058Z,7.00
2022-09-30T01:30:49.650Z,4.97
2022-09-30T01:32:32.769Z,3.80
2022-09-30T01:34:15.524Z,4.05
2022-09-30T01:36:11.458Z,5.72
2022-09-30T01:37:52.617Z,5.60
2022-09-30T01:39:35.330Z,7.05
2022-09-30T01:41:12.961Z,5.03
2022-09-30T01:42:52.869Z,6.38
2022-09-30T01:44:35.213Z,7.18
2022-09-30T01:46:20.944Z,3.95
2022-09-30T01:48:02.111Z,7.72
2022-09-30T01:49:44.112Z,4.25
2022-09-30T01:51:23.168Z,6.10
2022-09-30T01:53:09.140Z,4.90
2022-09-30T01:54:48.414Z,9.60
2022-09-30T01:56:25.683Z,7.53
2022-09-30T01:58:02.853Z,7.82
2022-09-30T01:59:43.691Z,8.00
2022-09-30T02:01:25.456Z,9.85
2022-09-30T02:03:02.721Z,5.13
2022-09-30T02:04:40.498Z,5.38
2022-09-30T02:06:20.601Z,11.50
2022-09-30T02:07:58.449Z,8.73
2022-09-30T02:09:40.125Z,5.88
2022-09-30T02:11:18.278Z,3.90
2022-09-30T02:12:57.745Z,6.43
2022-09-30T02:14:38.227Z,4.45
2022-09-30T02:16:18.148Z,5.65
2022-09-30T02:17:58.563Z,5.00
2022-09-30T02:19:37.126Z,7.78
2022-09-30T02:21:16.325Z,5.90
2022-09-30T02:22:52.130Z,6.00
2022-09-30T02:24:28.475Z,9.18
2022-09-30T02:26:07.880Z,6.68
2022-09-30T02:27:46.765Z,4.78
2022-09-30T02:29:25.084Z,5.03
2022-09-30T02:31:01.143Z,8.30
2022-09-30T02:32:39.894Z,9.20
2022-09-30T02:34:19.327Z,9.43
2022-09-30T02:35:58.844Z,5.80
2022-09-30T02:37:36.985Z,2.85
2022-09-30T02:39:15.336Z,7.10
2022-09-30T02:40:52.152Z,4.93
2022-09-30T02:42:28.704Z,4.63
2022-09-30T02:44:02.789Z,4.43
2022-09-30T02:45:44.425Z,6.03
2022-09-30T02:47:26.833Z,7.50
2022-09-30T02:49:04.758Z,5.28
2022-09-30T02:50:48.372Z,10.98
2022-09-30T02:52:28.958Z,5.55
2022-09-30T02:54:06.435Z,42.53
2022-09-30T02:55:50.148Z,50.28
2022-09-30T02:57:31.408Z,19.25
2022-09-30T02:59:03.577Z,6.88
2022-09-30T03:00:36.867Z,8.80
2022-09-30T03:02:10.152Z,4.32
2022-09-30T03:03:46.279Z,9.85
2022-09-30T03:05:19.502Z,9.00
2022-09-30T03:06:54.307Z,6.18
2022-09-30T03:08:27.823Z,5.88
2022-09-30T03:10:00.999Z,4.90
2022-09-30T03:11:34.342Z,3.83
2022-09-30T03:13:21.804Z,4.75
2022-09-30T03:15:18.129Z,9.82
2022-09-30T03:17:17.319Z,6.65
2022-09-30T03:19:06.781Z,4.55
2022-09-30T03:20:54.271Z,7.90
2022-09-30T03:22:49.158Z,3.63
2022-09-30T03:24:58.934Z,10.18
2022-09-30T03:26:42.696Z,7.60
2022-09-30T03:28:23.099Z,5.22
2022-09-30T03:30:05.379Z,11.73
2022-09-30T03:31:47.043Z,5.85
2022-09-30T03:33:26.364Z,8.27
2022-09-30T03:35:06.093Z,8.23
2022-09-30T03:36:42.810Z,5.10
2022-09-30T03:38:29.580Z,7.00
2022-09-30T03:40:10.206Z,8.13
2022-09-30T03:41:48.151Z,7.68
2022-09-30T03:43:27.432Z,32.20
2022-09-30T03:45:07.852Z,7.05
2022-09-30T03:46:46.082Z,5.75
2022-09-30T03:48:19.785Z,5.28
2022-09-30T03:49:57.270Z,6.07
2022-09-30T03:51:31.329Z,5.28
2022-09-30T03:53:05.442Z,9.77
2022-09-30T03:54:50.397Z,5.70
2022-09-30T03:56:27.546Z,6.88
2022-09-30T03:58:00.801Z,5.63
2022-09-30T03:59:34.048Z,11.05
2022-09-30T04:01:07.398Z,4.32
2022-09-30T04:02:40.624Z,5.07
2022-09-30T04:04:13.706Z,14.48
2022-09-30T04:05:47.364Z,6.70
2022-09-30T04:07:20.650Z,9.40
2022-09-30T04:08:54.011Z,8.00
2022-09-30T04:10:28.535Z,5.63
2022-09-30T04:12:02.199Z,11.43
2022-09-30T04:13:35.459Z,11.93
2022-09-30T04:15:09.619Z,7.90
2022-09-30T04:16:43.159Z,9.45
2022-09-30T04:18:16.425Z,9.65
2022-09-30T04:19:49.814Z,8.68
2022-09-30T04:21:22.924Z,7.85
2022-09-30T04:22:57.541Z,4.93
2022-09-30T04:24:30.923Z,5.65
2022-09-30T04:26:06.817Z,9.25
2022-09-30T04:27:39.975Z,7.07
2022-09-30T04:29:13.154Z,8.18
2022-09-30T04:30:46.456Z,7.53
2022-09-30T04:32:19.587Z,6.00
2022-09-30T04:33:57.099Z,5.30
2022-09-30T04:35:30.389Z,8.15
2022-09-30T04:37:04.481Z,6.10
2022-09-30T04:38:39.577Z,8.23
2022-09-30T04:40:13.321Z,9.75
2022-09-30T04:41:47.842Z,8.00
2022-09-30T04:43:23.594Z,7.68
2022-09-30T04:44:58.258Z,5.68
2022-09-30T04:46:31.381Z,7.43
2022-09-30T04:48:04.616Z,9.63
2022-09-30T04:49:37.922Z,12.82
2022-09-30T04:51:11.047Z,9.75
2022-09-30T04:52:44.693Z,11.07
2022-09-30T04:54:17.740Z,9.80
2022-09-30T04:55:51.048Z,10.43
2022-09-30T04:57:25.588Z,9.50
2022-09-30T04:58:58.776Z,5.25
2022-09-30T05:00:31.991Z,5.82
2022-09-30T05:02:05.539Z,7.35
2022-09-30T05:03:39.391Z,6.10
2022-09-30T05:05:12.450Z,5.28
2022-09-30T05:06:45.611Z,12.27
2022-09-30T05:08:19.914Z,5.10
2022-09-30T05:09:53.497Z,6.40
2022-09-30T05:11:27.846Z,4.45
2022-09-30T05:13:02.414Z,13.68
2022-09-30T05:14:35.646Z,12.50
2022-09-30T05:16:09.831Z,13.73
2022-09-30T05:17:43.025Z,5.90
2022-09-30T05:19:16.229Z,6.82
2022-09-30T05:20:51.094Z,10.98
2022-09-30T05:22:25.347Z,5.80
2022-09-30T05:23:58.634Z,4.95
2022-09-30T05:25:31.779Z,5.38
2022-09-30T05:27:05.018Z,4.90
2022-09-30T05:28:39.712Z,7.93
2022-09-30T05:30:13.025Z,7.00
2022-09-30T05:31:46.178Z,7.45
2022-09-30T05:33:19.436Z,10.02
2022-09-30T05:34:52.677Z,8.45
2022-09-30T05:36:25.869Z,8.98
2022-09-30T05:37:59.017Z,12.48
2022-09-30T05:39:32.320Z,7.55
2022-09-30T05:41:11.476Z,5.93
2022-09-30T05:42:45.049Z,11.00
2022-09-30T05:44:19.744Z,4.15
2022-09-30T05:45:56.226Z,6.85
2022-09-30T05:47:29.424Z,5.85
2022-09-30T05:49:02.634Z,7.28
2022-09-30T05:50:35.922Z,9.20
2022-09-30T05:52:09.266Z,18.63
2022-09-30T05:53:42.790Z,4.50
2022-09-30T05:55:16.220Z,9.10
2022-09-30T05:56:49.388Z,5.45
2022-09-30T05:58:21.779Z,6.35
2022-09-30T05:59:56.514Z,4.50
2022-09-30T06:01:29.756Z,5.40
2022-09-30T06:03:02.958Z,3.22
2022-09-30T06:04:36.508Z,3.30
2022-09-30T06:06:09.968Z,4.70
2022-09-30T06:07:43.133Z,6.72
2022-09-30T06:09:16.323Z,6.13
2022-09-30T06:10:49.738Z,8.77
2022-09-30T06:12:23.309Z,4.93
2022-09-30T06:13:57.442Z,8.60
2022-09-30T06:15:32.461Z,4.32
2022-09-30T06:17:06.531Z,7.10
2022-09-30T06:18:41.397Z,3.63
2022-09-30T06:20:14.627Z,7.72
2022-09-30T06:21:47.666Z,6.93
2022-09-30T06:23:20.810Z,6.05
2022-09-30T06:24:55.453Z,4.93
2022-09-30T06:26:28.947Z,6.90
2022-09-30T06:28:02.736Z,8.02
2022-09-30T06:29:36.065Z,4.70
2022-09-30T06:31:11.636Z,7.57
2022-09-30T06:32:45.316Z,10.18
2022-09-30T06:34:19.556Z,11.98
2022-09-30T06:35:52.755Z,4.10
2022-09-30T06:37:26.745Z,6.50
2022-09-30T06:39:00.032Z,11.75
2022-09-30T06:40:33.194Z,4.07
2022-09-30T06:42:06.423Z,3.28
2022-09-30T06:43:55.956Z,7.13
2022-09-30T06:45:37.288Z,3.95
2022-09-30T06:47:21.641Z,4.35
2022-09-30T06:49:06.816Z,8.05
2022-09-30T06:50:54.241Z,6.30
2022-09-30T06:52:31.962Z,4.78
2022-09-30T06:54:05.445Z,9.20
2022-09-30T06:55:39.836Z,5.38
2022-09-30T06:57:13.031Z,5.03
2022-09-30T06:58:46.658Z,7.10
2022-09-30T07:00:20.102Z,6.97
2022-09-30T07:01:53.823Z,6.20
2022-09-30T07:03:30.424Z,6.78
2022-09-30T07:05:04.484Z,5.65
2022-09-30T07:06:38.644Z,5.25
2022-09-30T07:08:11.811Z,12.20
2022-09-30T07:09:44.954Z,5.80
2022-09-30T07:11:18.282Z,3.75
2022-09-30T07:12:52.331Z,7.43
2022-09-30T07:14:25.530Z,5.88
2022-09-30T07:15:59.088Z,4.80
2022-09-30T07:17:32.339Z,7.75
2022-09-30T07:19:10.393Z,6.00
2022-09-30T07:20:48.614Z,3.67
2022-09-30T07:22:32.057Z,3.97
2022-09-30T07:24:05.726Z,3.08
2022-09-30T07:25:39.099Z,6.75
2022-09-30T07:27:13.775Z,4.03
2022-09-30T07:28:47.463Z,6.05
2022-09-30T07:30:27.094Z,6.45
2022-09-30T07:32:01.308Z,7.90
2022-09-30T07:33:35.677Z,4.43
2022-09-30T07:35:10.554Z,10.07
2022-09-30T07:36:43.951Z,6.18
2022-09-30T07:38:17.719Z,6.78
2022-09-30T07:39:50.902Z,4.88
2022-09-30T07:41:27.392Z,4.05
2022-09-30T07:43:01.975Z,9.95
2022-09-30T07:44:37.238Z,5.72
2022-09-30T07:46:12.923Z,5.03
2022-09-30T07:47:49.798Z,6.82
2022-09-30T07:49:26.652Z,9.00
2022-09-30T07:51:01.346Z,7.00
2022-09-30T07:52:34.518Z,8.07
2022-09-30T07:54:09.866Z,8.10
2022-09-30T07:55:43.179Z,6.50
2022-09-30T07:57:16.636Z,9.38
2022-09-30T07:58:49.222Z,5.47
2022-09-30T08:00:41.515Z,4.80
2022-09-30T08:02:18.278Z,5.65
2022-09-30T08:03:54.824Z,3.03
2022-09-30T08:05:28.071Z,7.97
2022-09-30T08:07:03.562Z,8.35
2022-09-30T08:08:38.158Z,4.13
2022-09-30T08:10:11.942Z,9.07
2022-09-30T08:11:45.202Z,5.63
2022-09-30T08:13:20.067Z,6.15
2022-09-30T08:14:53.415Z,5.20
2022-09-30T08:16:27.608Z,5.55
2022-09-30T08:18:01.122Z,7.90
2022-09-30T08:19:35.357Z,2.15
2022-09-30T08:21:09.171Z,4.90
2022-09-30T08:22:43.746Z,4.22
2022-09-30T08:24:17.566Z,6.57
2022-09-30T08:25:50.821Z,7.72
2022-09-30T08:27:24.292Z,3.70
2022-09-30T08:28:57.569Z,4.28
2022-09-30T08:30:31.063Z,4.28
2022-09-30T08:32:04.305Z,7.47
2022-09-30T08:33:38.368Z,2.13
2022-09-30T08:35:11.590Z,5.88
2022-09-30T08:36:46.696Z,5.63
2022-09-30T08:38:21.301Z,3.75
2022-09-30T08:39:54.978Z,3.65
2022-09-30T08:42:19.041Z,5.70
2022-09-30T08:44:07.762Z,10.90
2022-09-30T08:45:52.093Z,4.95
2022-09-30T08:47:41.340Z,7.05
2022-09-30T08:49:39.472Z,5.53
2022-09-30T08:51:29.343Z,5.22
2022-09-30T08:53:07.183Z,5.07
2022-09-30T08:54:48.517Z,5.20
2022-09-30T08:56:25.225Z,1.60
2022-09-30T08:57:59.628Z,6.93
2022-09-30T08:59:37.318Z,4.80
2022-09-30T09:01:18.362Z,5.65
2022-09-30T09:02:55.044Z,6.20
2022-09-30T09:04:28.307Z,5.70
2022-09-30T09:06:13.312Z,5.18
2022-09-30T09:07:54.805Z,4.43
2022-09-30T09:09:50.259Z,10.93
2022-09-30T09:11:43.337Z,3.85
2022-09-30T09:13:33.759Z,5.55
2022-09-30T09:15:22.866Z,4.55
2022-09-30T09:17:06.937Z,4.63
2022-09-30T09:18:47.446Z,6.75
2022-09-30T09:20:23.900Z,5.18
2022-09-30T09:22:00.973Z,7.72
2022-09-30T09:23:34.655Z,7.20
2022-09-30T09:25:15.740Z,7.30
2022-09-30T09:26:51.284Z,7.63
2022-09-30T09:28:33.853Z,7.35
2022-09-30T09:30:09.623Z,6.68
2022-09-30T09:31:43.087Z,3.92
2022-09-30T09:33:21.882Z,6.35
2022-09-30T09:34:59.771Z,7.68
2022-09-30T09:36:47.551Z,5.85
2022-09-30T09:38:27.591Z,4.90
2022-09-30T09:40:13.174Z,6.57
2022-09-30T09:41:55.597Z,8.48
2022-09-30T09:43:39.517Z,7.10
2022-09-30T09:45:22.278Z,5.57
2022-09-30T09:47:05.129Z,8.40
2022-09-30T09:48:38.456Z,7.88
2022-09-30T09:50:18.477Z,4.40
2022-09-30T09:52:05.866Z,5.95
2022-09-30T09:53:45.391Z,8.43
2022-09-30T09:55:23.968Z,3.95
2022-09-30T09:56:57.282Z,3.65
2022-09-30T09:58:31.043Z,5.28
2022-09-30T10:00:21.094Z,3.55
2022-09-30T10:01:55.588Z,1.10
2022-09-30T10:03:29.114Z,3.80
2022-09-30T10:05:03.893Z,2.72
2022-09-30T10:06:48.702Z,1.77
2022-09-30T10:08:23.603Z,4.72
2022-09-30T10:10:09.664Z,1.50
2022-09-30T10:11:44.250Z,4.03
2022-09-30T10:13:20.717Z,4.78
2022-09-30T10:14:59.861Z,2.20
2022-09-30T10:16:36.037Z,2.97
2022-09-30T10:18:20.367Z,2.42
2022-09-30T10:19:56.095Z,4.53
2022-09-30T10:21:30.832Z,2.92
2022-09-30T10:23:11.178Z,1.77
2022-09-30T10:24:44.699Z,1.42
2022-09-30T10:26:20.561Z,1.77
2022-09-30T10:27:58.489Z,5.88
2022-09-30T10:29:33.798Z,5.65
2022-09-30T10:31:08.816Z,1.50
2022-09-30T10:32:42.151Z,2.97
2022-09-30T10:34:26.953Z,4.68
2022-09-30T10:36:09.658Z,2.17
2022-09-30T10:37:52.582Z,4.82
2022-09-30T10:39:29.203Z,2.22
2022-09-30T10:41:04.246Z,2.17
2022-09-30T10:42:41.913Z,2.38
2022-09-30T10:44:20.634Z,3.65
2022-09-30T10:46:20.778Z,5.18
2022-09-30T10:47:51.173Z,2.13
2022-09-30T10:49:29.560Z,3.25
2022-09-30T10:51:03.675Z,3.17
2022-09-30T10:52:40.391Z,3.40
2022-09-30T10:54:46.671Z,2.13
2022-09-30T10:56:39.284Z,1.80
2022-09-30T10:58:24.363Z,2.58
2022-09-30T11:00:01.810Z,3.38
2022-09-30T11:01:40.047Z,4.47
2022-09-30T11:03:18.276Z,1.10
2022-09-30T11:04:59.999Z,1.20
2022-09-30T11:06:38.514Z,2.95
2022-09-30T11:08:16.841Z,4.55
2022-09-30T11:10:00.261Z,1.88
2022-09-30T11:11:38.974Z,1.30
2022-09-30T11:13:17.194Z,1.60
2022-09-30T11:14:58.850Z,1.30
2022-09-30T11:16:44.288Z,1.52
2022-09-30T11:18:23.174Z,5.78
2022-09-30T11:20:09.258Z,4.40
2022-09-30T11:21:47.919Z,1.20
2022-09-30T11:23:28.898Z,8.77
2022-09-30T11:25:08.768Z,1.90
2022-09-30T11:26:51.880Z,1.55
2022-09-30T11:28:41.518Z,2.25
2022-09-30T11:30:20.403Z,3.80
2022-09-30T11:32:00.381Z,2.67
2022-09-30T11:33:48.675Z,11.00
2022-09-30T11:35:33.548Z,7.60
2022-09-30T11:37:16.535Z,5.57
2022-09-30T11:39:10.208Z,4.50
2022-09-30T11:40:53.968Z,2.30
2022-09-30T11:42:39.004Z,7.50
2022-09-30T11:44:27.862Z,2.78
2022-09-30T11:46:19.151Z,4.40
2022-09-30T11:48:13.921Z,5.55
2022-09-30T11:50:07.780Z,2.72
2022-09-30T11:51:48.296Z,4.15
2022-09-30T11:53:36.279Z,1.67
2022-09-30T11:55:31.986Z,2.95
2022-09-30T11:57:12.507Z,3.53
2022-09-30T11:58:51.302Z,5.82
2022-09-30T12:00:24.585Z,6.90
2022-09-30T12:02:02.943Z,6.47
2022-09-30T12:03:41.872Z,3.05
2022-09-30T12:05:20.474Z,5.10
2022-09-30T12:06:57.801Z,5.15
2022-09-30T12:08:35.178Z,10.15
2022-09-30T12:10:21.668Z,5.20
2022-09-30T12:11:59.896Z,6.53
2022-09-30T12:13:39.092Z,7.13
2022-09-30T12:15:18.317Z,2.10
2022-09-30T12:16:52.157Z,8.20
2022-09-30T12:18:31.620Z,3.85
2022-09-30T12:20:12.004Z,4.95
2022-09-30T12:21:51.273Z,5.25
2022-09-30T12:23:32.892Z,6.13
2022-09-30T12:25:15.748Z,3.67
2022-09-30T12:26:49.486Z,8.75
2022-09-30T12:28:48.516Z,4.15
2022-09-30T12:30:24.499Z,5.40
2022-09-30T12:32:12.193Z,5.75
2022-09-30T12:34:00.391Z,3.47
2022-09-30T12:36:03.589Z,2.45
2022-09-30T12:37:55.103Z,0.90
2022-09-30T12:40:06.188Z,4.55
2022-09-30T12:41:54.106Z,1.67
2022-09-30T12:44:25.336Z,2.42
2022-09-30T12:46:15.816Z,2.67
2022-09-30T12:47:51.713Z,6.68
2022-09-30T12:49:27.844Z,3.03
2022-09-30T12:51:01.808Z,2.15
2022-09-30T12:52:38.564Z,1.65
2022-09-30T12:54:17.322Z,4.05
2022-09-30T12:55:51.355Z,4.15
2022-09-30T12:57:28.311Z,1.95
2022-09-30T12:59:03.888Z,1.60
2022-09-30T13:00:37.833Z,3.22
2022-09-30T13:02:31.863Z,3.00
2022-09-30T13:04:18.922Z,2.17
2022-09-30T13:05:58.054Z,1.08
2022-09-30T13:07:34.747Z,1.85
2022-09-30T13:09:22.580Z,4.03
2022-09-30T13:11:00.380Z,5.03
2022-09-30T13:13:09.962Z,2.92
2022-09-30T13:14:44.551Z,3.08
2022-09-30T13:16:56.512Z,2.28
2022-09-30T13:19:02.117Z,2.03
2022-09-30T13:20:55.325Z,1.10
2022-09-30T13:22:58.722Z,2.92
2022-09-30T13:25:05.297Z,1.15
2022-09-30T13:26:46.533Z,1.40
2022-09-30T13:28:32.205Z,0.88
2022-09-30T13:30:36.340Z,1.85
2022-09-30T13:32:10.802Z,2.67
2022-09-30T13:33:47.126Z,0.70
2022-09-30T13:35:32.941Z,1.75
2022-09-30T13:37:07.214Z,1.92
2022-09-30T13:38:41.519Z,0.80
2022-09-30T13:40:32.963Z,2.90
2022-09-30T13:42:26.994Z,2.67
2022-09-30T13:44:08.202Z,6.20
2022-09-30T13:45:45.093Z,8.57
2022-09-30T13:47:31.136Z,2.70
2022-09-30T13:49:12.180Z,6.35
2022-09-30T13:50:50.482Z,1.38
2022-09-30T13:52:29.175Z,5.25
2022-09-30T13:54:09.048Z,1.48
2022-09-30T13:55:46.372Z,2.10
2022-09-30T13:57:25.226Z,3.40
2022-09-30T13:59:28.950Z,3.63
2022-09-30T14:01:12.941Z,2.67
2022-09-30T14:03:23.836Z,2.75
2022-09-30T14:05:26.578Z,2.88
2022-09-30T14:07:11.535Z,1.13
2022-09-30T14:09:05.870Z,3.95
2022-09-30T14:10:54.356Z,2.78
2022-09-30T14:12:51.878Z,2.75
2022-09-30T14:15:02.476Z,8.35
2022-09-30T14:16:58.367Z,2.83
2022-09-30T14:18:54.822Z,1.50
2022-09-30T14:20:41.254Z,1.13
2022-09-30T14:22:16.914Z,6.93
2022-09-30T14:24:00.576Z,4.05
2022-09-30T14:25:41.362Z,2.03
2022-09-30T14:27:34.638Z,2.80
2022-09-30T14:29:18.653Z,0.90
2022-09-30T14:31:13.324Z,3.17
2022-09-30T14:32:49.400Z,5.07
2022-09-30T14:34:25.794Z,3.60
2022-09-30T14:36:03.234Z,2.22
2022-09-30T14:37:43.387Z,2.13
2022-09-30T14:39:21.221Z,3.58
2022-09-30T14:40:57.209Z,5.85
2022-09-30T14:42:35.025Z,5.15
2022-09-30T14:44:08.793Z,2.45
2022-09-30T14:45:47.414Z,4.05
2022-09-30T14:47:23.194Z,3.95
2022-09-30T14:49:01.859Z,9.90
2022-09-30T14:50:43.359Z,10.68
2022-09-30T14:52:36.291Z,10.98
2022-09-30T14:54:20.451Z,6.38
2022-09-30T14:55:53.198Z,6.45
2022-09-30T14:57:27.121Z,3.03
2022-09-30T14:59:01.822Z,5.82
2022-09-30T15:00:36.728Z,6.72
2022-09-30T15:02:18.543Z,4.82
2022-09-30T15:03:55.670Z,1.88
2022-09-30T15:05:28.686Z,4.75
2022-09-30T15:07:04.508Z,4.20
2022-09-30T15:08:37.744Z,3.85
2022-09-30T15:10:20.112Z,6.30
2022-09-30T15:11:53.598Z,9.30
2022-09-30T15:13:31.254Z,5.75
2022-09-30T15:15:25.396Z,6.35
2022-09-30T15:17:03.756Z,7.72
2022-09-30T15:18:47.953Z,7.38
2022-09-30T15:20:30.977Z,5.38
2022-09-30T15:22:09.652Z,5.30
2022-09-30T15:23:45.870Z,13.05
2022-09-30T15:25:22.294Z,4.47
2022-09-30T15:26:57.189Z,3.95
2022-09-30T15:28:30.715Z,5.95
2022-09-30T15:30:23.335Z,5.15
2022-09-30T15:32:01.462Z,15.10
2022-09-30T15:33:35.878Z,18.98
2022-09-30T15:35:16.663Z,10.77
2022-09-30T15:36:58.934Z,40.45
2022-09-30T15:38:33.704Z,11.20
2022-09-30T15:40:34.124Z,9.30
2022-09-30T15:42:10.637Z,5.85
2022-09-30T15:43:46.296Z,9.45
2022-09-30T15:45:35.129Z,8.75
2022-09-30T15:47:11.847Z,21.88
2022-09-30T15:48:44.912Z,5.47
2022-09-30T15:50:43.253Z,6.50
2022-09-30T15:52:29.571Z,9.90
2022-09-30T15:54:04.045Z,7.40
2022-09-30T15:55:41.877Z,11.18
2022-09-30T15:57:48.866Z,7.63
2022-09-30T15:59:22.751Z,15.63
2022-09-30T16:01:15.330Z,7.85
2022-09-30T16:02:48.738Z,9.10
2022-09-30T16:04:26.867Z,8.70
2022-09-30T16:06:07.678Z,11.48
2022-09-30T16:07:43.546Z,6.32
2022-09-30T16:09:23.421Z,14.10
2022-09-30T16:10:58.465Z,5.55
2022-09-30T16:12:36.255Z,6.47
2022-09-30T16:14:20.495Z,8.93
2022-09-30T16:15:57.268Z,17.05
2022-09-30T16:17:33.994Z,8.20
2022-09-30T16:19:10.605Z,9.68
2022-09-30T16:20:57.489Z,10.13
2022-09-30T16:22:52.910Z,11.07
2022-09-30T16:24:48.659Z,13.43
2022-09-30T16:26:28.398Z,12.55
2022-09-30T16:28:07.142Z,7.05
2022-09-30T16:29:40.767Z,44.25
2022-09-30T16:31:15.478Z,33.85
2022-09-30T16:32:51.888Z,37.40
2022-09-30T16:34:27.872Z,21.98
2022-09-30T16:36:01.172Z,22.77
2022-09-30T16:37:35.250Z,20.75
2022-09-30T16:39:13.888Z,15.77
2022-09-30T16:40:47.355Z,19.65
2022-09-30T16:42:20.250Z,17.15
2022-09-30T16:43:53.440Z,12.30
2022-09-30T16:45:29.530Z,6.38
2022-09-30T16:47:02.915Z,8.32
2022-09-30T16:48:36.203Z,12.38
2022-09-30T16:50:23.634Z,6.50
2022-09-30T16:51:57.017Z,6.25
2022-09-30T16:53:30.385Z,13.10
2022-09-30T16:55:03.634Z,5.95
2022-09-30T16:56:37.157Z,3.58
2022-09-30T16:58:13.359Z,7.90
2022-09-30T16:59:46.640Z,5.78
2022-09-30T17:01:23.480Z,8.50
2022-09-30T17:02:56.901Z,5.70
2022-09-30T17:04:33.276Z,12.93
2022-09-30T17:06:06.780Z,14.88
2022-09-30T17:07:39.975Z,17.92
2022-09-30T17:09:13.285Z,37.85
2022-09-30T17:10:50.083Z,26.08
2022-09-30T17:12:23.524Z,17.65
2022-09-30T17:13:56.801Z,8.65
2022-09-30T17:15:32.135Z,6.07
2022-09-30T17:17:09.823Z,6.88
2022-09-30T17:18:46.368Z,3.92
2022-09-30T17:20:21.495Z,14.10
2022-09-30T17:21:54.656Z,5.85
2022-09-30T17:23:28.152Z,11.80
2022-09-30T17:25:01.456Z,6.10
2022-09-30T17:26:34.989Z,8.18
2022-09-30T17:28:09.086Z,4.50
2022-09-30T17:29:42.431Z,3.90
2022-09-30T17:31:16.162Z,4.65
2022-09-30T17:32:50.899Z,4.47
2022-09-30T17:34:24.634Z,5.57
2022-09-30T17:36:02.350Z,2.35
2022-09-30T17:37:38.508Z,5.30
2022-09-30T17:39:13.442Z,6.65
2022-09-30T17:41:04.508Z,4.18
2022-09-30T17:42:58.130Z,9.05
2022-09-30T17:44:32.612Z,4.78
2022-09-30T17:46:06.166Z,8.18
2022-09-30T17:47:41.459Z,6.20
2022-09-30T17:49:21.896Z,1.30
2022-09-30T17:50:57.200Z,5.38
2022-09-30T17:52:34.357Z,3.20
2022-09-30T17:54:08.395Z,5.95
2022-09-30T17:55:42.207Z,10.18
2022-09-30T17:57:15.413Z,4.15
2022-09-30T17:58:50.831Z,2.88
2022-09-30T18:00:24.764Z,6.18
2022-09-30T18:01:58.083Z,6.85
2022-09-30T18:03:32.493Z,3.15
2022-09-30T18:05:07.574Z,3.47
2022-09-30T18:06:40.987Z,4.45
2022-09-30T18:08:14.242Z,3.38
2022-09-30T18:09:47.469Z,4.72
2022-09-30T18:11:22.235Z,4.72
2022-09-30T18:12:56.529Z,13.50
2022-09-30T18:14:35.336Z,11.25
2022-09-30T18:16:09.133Z,12.52
2022-09-30T18:17:42.604Z,6.90
2022-09-30T18:19:15.867Z,11.20
2022-09-30T18:20:52.185Z,8.25
2022-09-30T18:22:25.502Z,6.10
2022-09-30T18:23:58.980Z,7.50
2022-09-30T18:25:32.369Z,11.25
2022-09-30T18:27:04.800Z,7.78
2022-09-30T18:28:38.175Z,12.25
2022-09-30T18:30:13.250Z,11.25
2022-09-30T18:31:46.663Z,13.98
2022-09-30T18:33:21.685Z,17.30
2022-09-30T18:34:54.938Z,13.93
2022-09-30T18:36:32.477Z,16.40
2022-09-30T18:38:06.686Z,13.80
2022-09-30T18:39:40.166Z,13.00
2022-09-30T18:41:13.519Z,16.80
2022-09-30T18:42:47.219Z,21.65
2022-09-30T18:44:20.487Z,26.42
2022-09-30T18:45:56.765Z,23.40
2022-09-30T18:47:30.460Z,24.25
2022-09-30T18:49:03.755Z,21.75
2022-09-30T18:50:37.524Z,20.30
2022-09-30T18:52:12.240Z,16.60
2022-09-30T18:53:45.743Z,15.05
2022-09-30T18:55:19.186Z,9.65
2022-09-30T18:56:52.504Z,12.70
2022-09-30T18:58:25.820Z,9.82
2022-09-30T18:59:59.091Z,7.70
2022-09-30T19:01:33.150Z,11.80
2022-09-30T19:03:10.296Z,14.73
2022-09-30T19:04:43.477Z,9.20
2022-09-30T19:06:16.981Z,9.90
2022-09-30T19:07:53.649Z,9.23
2022-09-30T19:09:28.391Z,12.52
2022-09-30T19:11:10.701Z,10.77
2022-09-30T19:12:45.827Z,12.82
2022-09-30T19:14:20.037Z,8.77
2022-09-30T19:15:53.426Z,8.07
2022-09-30T19:17:26.660Z,12.68
2022-09-30T19:19:01.335Z,11.88
2022-09-30T19:20:37.607Z,10.07
2022-09-30T19:22:10.862Z,28.17
2022-09-30T19:23:45.912Z,8.57
2022-09-30T19:25:19.655Z,7.03
2022-09-30T19:26:53.467Z,6.88
2022-09-30T19:28:27.369Z,9.60
2022-09-30T19:30:00.637Z,5.38
2022-09-30T19:31:36.015Z,2.67
2022-09-30T19:33:09.980Z,6.43
2022-09-30T19:34:43.634Z,7.25
2022-09-30T19:36:17.832Z,5.70
2022-09-30T19:38:00.982Z,4.25
2022-09-30T19:39:45.495Z,3.13
2022-09-30T19:41:19.471Z,4.97
2022-09-30T19:42:52.652Z,4.93
2022-09-30T19:44:26.101Z,4.03
2022-09-30T19:46:01.398Z,1.95
2022-09-30T19:47:35.137Z,4.75
2022-09-30T19:49:08.384Z,4.90
2022-09-30T19:50:41.675Z,3.25
2022-09-30T19:52:21.980Z,10.10
2022-09-30T19:54:05.488Z,8.25
2022-09-30T19:55:50.053Z,7.03
2022-09-30T19:57:24.292Z,8.30
2022-09-30T19:58:59.336Z,12.23
2022-09-30T20:00:32.507Z,7.07
2022-09-30T20:02:05.832Z,4.30
2022-09-30T20:03:40.633Z,6.95
2022-09-30T20:05:14.065Z,4.50
2022-09-30T20:06:47.239Z,4.18
2022-09-30T20:08:20.557Z,5.43
2022-09-30T20:09:53.727Z,5.40
2022-09-30T20:11:33.543Z,5.75
2022-09-30T20:13:07.033Z,4.72
2022-09-30T20:14:57.751Z,8.20
2022-09-30T20:16:30.201Z,13.95
2022-09-30T20:18:03.522Z,6.15
2022-09-30T20:19:36.724Z,10.70
2022-09-30T20:21:10.419Z,4.35
2022-09-30T20:22:43.670Z,5.05
2022-09-30T20:24:19.254Z,7.63
2022-09-30T20:25:52.941Z,6.57
2022-09-30T20:27:28.101Z,5.93
2022-09-30T20:29:02.173Z,8.73
2022-09-30T20:30:39.486Z,11.77
2022-09-30T20:32:12.633Z,6.65
2022-09-30T20:33:46.295Z,6.32
2022-09-30T20:35:21.394Z,7.97
2022-09-30T20:36:54.938Z,6.13
2022-09-30T20:38:28.321Z,4.47
2022-09-30T20:40:00.926Z,7.47
2022-09-30T20:41:35.829Z,7.93
2022-09-30T20:43:11.798Z,5.28
2022-09-30T20:44:45.336Z,6.93
2022-09-30T20:46:18.598Z,3.60
2022-09-30T20:47:51.970Z,12.40
2022-09-30T20:49:25.471Z,9.70
2022-09-30T20:50:58.751Z,6.35
2022-09-30T20:52:32.126Z,2.53
2022-09-30T20:54:05.503Z,5.25
2022-09-30T20:55:41.121Z,6.97
2022-09-30T20:57:14.291Z,5.80
2022-09-30T20:58:49.099Z,4.65
2022-09-30T21:00:22.746Z,4.93
2022-09-30T21:01:56.123Z,4.35
2022-09-30T21:03:32.111Z,6.72
2022-09-30T21:05:06.013Z,4.88
2022-09-30T21:06:39.429Z,5.20
2022-09-30T21:08:12.608Z,7.95
2022-09-30T21:09:45.770Z,3.70
2022-09-30T21:11:19.610Z,4.15
2022-09-30T21:12:52.959Z,9.82
2022-09-30T21:14:27.885Z,8.27
2022-09-30T21:16:02.105Z,2.90
2022-09-30T21:17:35.334Z,12.10
2022-09-30T21:19:08.839Z,7.15
2022-09-30T21:20:42.065Z,3.40
2022-09-30T21:22:15.281Z,5.78
2022-09-30T21:23:48.464Z,10.85
2022-09-30T21:25:21.821Z,6.53
2022-09-30T21:26:56.025Z,7.88
2022-09-30T21:28:29.705Z,8.82
2022-09-30T21:30:06.052Z,16.83
2022-09-30T21:31:39.375Z,50.47
2022-09-30T21:33:11.594Z,54.17
2022-09-30T21:34:44.788Z,49.38
2022-09-30T21:36:18.164Z,46.50
2022-09-30T21:37:51.624Z,39.00
2022-09-30T21:39:24.987Z,48.60
2022-09-30T21:41:00.303Z,39.15
2022-09-30T21:42:33.823Z,40.85